Time;durP1;ratioP1;P1;durP2;ratioP2;P2;SDS_P1;SDS_P2;PMS_P1;PMS_P2;Temp;Humidity;BMP_temperature;BMP_pressure;BME280_temperature;BME280_humidity;BME280_pressure;Samples;Min_cycle;Max_cycle;Signal;HPM_P1;HPM_P2
2022/01/22 00:03:38;;;;;;;16.92;9.88;;;;;;;1.33;100.00;99599.06;10378923;28;20049;-79
2022/01/22 00:08:38;;;;;;;13.82;9.50;;;;;;;1.34;100.00;99596.19;10384730;28;20053;-78
2022/01/22 00:18:57;;;;;;;14.75;9.45;;;;;;;1.40;100.00;99578.59;10384861;28;20385;-78
2022/01/22 00:24:01;;;;;;;12.27;8.50;;;;;;;1.33;100.00;99570.78;10392002;28;20072;-78
2022/01/22 00:29:04;;;;;;;13.23;8.23;;;;;;;1.32;100.00;99576.28;10403011;28;20049;-79
2022/01/22 00:34:04;;;;;;;11.95;7.88;;;;;;;1.48;100.00;99577.44;10385637;28;20058;-78
2022/01/22 00:39:05;;;;;;;12.40;8.40;;;;;;;1.40;100.00;99573.31;10392775;28;20085;-78
2022/01/22 00:44:07;;;;;;;11.32;7.68;;;;;;;1.38;100.00;99576.19;10361864;28;20038;-78
2022/01/22 00:49:09;;;;;;;13.13;8.57;;;;;;;1.43;100.00;99565.69;10367983;28;20446;-79
2022/01/22 00:54:09;;;;;;;12.13;7.97;;;;;;;1.42;100.00;99566.75;10338513;28;20173;-78
2022/01/22 00:59:11;;;;;;;11.55;7.70;;;;;;;1.31;100.00;99569.41;10348195;28;20504;-75
2022/01/22 01:04:12;;;;;;;13.13;8.15;;;;;;;1.36;100.00;99570.31;10347609;28;20057;-76
2022/01/22 01:09:13;;;;;;;13.48;8.32;;;;;;;1.26;100.00;99575.38;10327534;28;20501;-75
2022/01/22 01:14:21;;;;;;;13.98;9.25;;;;;;;1.32;100.00;99590.31;10325278;28;20123;-76
2022/01/22 01:35:21;;;;;;;11.77;8.27;;;;;;;1.34;100.00;99569.72;10356235;28;20053;-77
2022/01/22 01:40:24;;;;;;;14.15;9.30;;;;;;;1.34;100.00;99566.28;10363098;28;20062;-77
2022/01/22 01:45:25;;;;;;;13.38;8.57;;;;;;;1.33;100.00;99564.69;10363721;28;20042;-77
2022/01/22 01:50:29;;;;;;;16.35;10.63;;;;;;;1.40;100.00;99557.44;10343515;28;21131;-77
2022/01/22 01:55:50;;;;;;;14.40;9.95;;;;;;;1.36;100.00;99566.84;10369161;28;20421;-76
2022/01/22 02:01:00;;;;;;;14.68;10.18;;;;;;;1.33;100.00;99570.78;10348053;28;20129;-77
2022/01/22 02:06:05;;;;;;;16.60;10.73;;;;;;;1.35;100.00;99573.97;10342871;28;20061;-76
2022/01/22 02:11:09;;;;;;;13.80;10.00;;;;;;;1.39;100.00;99579.63;10345050;28;20605;-78
2022/01/22 02:27:35;;;;;;;18.05;11.18;;;;;;;1.34;100.00;99563.63;10359423;28;20056;-75
2022/01/22 02:37:50;;;;;;;18.05;11.20;;;;;;;1.40;100.00;99571.47;10362419;28;20581;-78
2022/01/22 02:42:52;;;;;;;19.70;11.32;;;;;;;1.45;100.00;99567.31;10362229;28;20054;-76
2022/01/22 02:47:54;;;;;;;17.80;10.77;;;;;;;1.48;100.00;99566.88;10365024;28;20119;-77
2022/01/22 02:52:55;;;;;;;21.33;11.70;;;;;;;1.57;100.00;99562.81;10361383;28;20058;-78
2022/01/22 02:57:56;;;;;;;18.80;11.52;;;;;;;1.63;100.00;99554.75;10349603;28;20156;-77
2022/01/22 03:02:57;;;;;;;18.90;11.45;;;;;;;1.62;100.00;99562.91;10344129;28;20434;-78
2022/01/22 03:08:08;;;;;;;20.90;12.15;;;;;;;1.70;100.00;99565.22;10343476;28;20069;-77
2022/01/22 03:13:24;;;;;;;19.90;12.45;;;;;;;1.84;100.00;99557.84;10307807;28;20054;-77
2022/01/22 03:18:42;;;;;;;23.50;12.93;;;;;;;1.84;100.00;99566.56;10351998;28;20050;-77
2022/01/22 03:29:12;;;;;;;21.27;13.35;;;;;;;1.87;100.00;99571.38;10354666;28;20066;-77
2022/01/22 03:34:13;;;;;;;20.33;12.07;;;;;;;2.01;100.00;99571.91;10352356;28;20057;-76
2022/01/22 03:39:14;;;;;;;22.40;13.18;;;;;;;1.96;100.00;99569.19;10354028;28;20065;-76
2022/01/22 03:44:15;;;;;;;24.45;14.55;;;;;;;1.93;100.00;99562.53;10335280;28;20081;-75
2022/01/22 03:49:16;;;;;;;24.13;13.63;;;;;;;1.92;100.00;99563.56;10332398;28;20061;-77
2022/01/22 03:54:17;;;;;;;22.75;13.13;;;;;;;1.95;100.00;99572.88;10344058;28;20510;-76
2022/01/22 03:59:18;;;;;;;21.75;13.13;;;;;;;1.98;100.00;99567.09;10361284;28;20057;-76
2022/01/22 04:04:45;;;;;;;26.38;13.98;;;;;;;1.99;100.00;99571.34;10362654;28;20081;-75
2022/01/22 04:09:47;;;;;;;24.33;13.45;;;;;;;2.03;100.00;99569.84;10350334;28;20057;-77
2022/01/22 04:14:54;;;;;;;26.38;15.45;;;;;;;1.92;100.00;99568.84;10357349;28;20100;-76
2022/01/22 04:25:20;;;;;;;27.77;14.23;;;;;;;1.98;100.00;99565.25;10353214;28;20359;-77
2022/01/22 04:30:21;;;;;;;28.60;14.40;;;;;;;2.05;100.00;99564.31;10363181;28;20057;-77
2022/01/22 04:35:24;;;;;;;32.60;13.02;;;;;;;2.05;100.00;99559.81;10361326;28;20709;-77
2022/01/22 04:40:24;;;;;;;25.65;13.80;;;;;;;2.07;100.00;99556.94;10339342;28;20073;-76
2022/01/22 04:45:52;;;;;;;23.25;13.65;;;;;;;2.03;100.00;99551.31;10365720;28;20093;-76
2022/01/22 04:56:39;;;;;;;23.98;12.20;;;;;;;2.03;100.00;99556.63;10224586;28;20055;-78
2022/01/22 05:01:40;;;;;;;21.42;11.65;;;;;;;2.18;100.00;99566.69;10348371;28;20065;-78
2022/01/22 05:07:00;;;;;;;20.27;11.98;;;;;;;2.15;100.00;99569.81;10365920;28;20039;-75
2022/01/22 05:12:16;;;;;;;24.17;13.10;;;;;;;2.13;100.00;99566.59;10352744;28;20069;-77
2022/01/22 05:17:18;;;;;;;21.00;12.60;;;;;;;2.09;100.00;99586.63;10362279;28;20053;-75
2022/01/22 05:22:49;;;;;;;21.83;12.35;;;;;;;2.11;100.00;99580.09;10351976;28;20080;-77
2022/01/22 05:33:15;;;;;;;21.95;12.98;;;;;;;2.14;100.00;99590.19;10356082;28;20050;-75
2022/01/22 05:38:43;;;;;;;21.65;11.68;;;;;;;2.13;100.00;99596.53;10388456;28;20062;-78
2022/01/22 05:43:47;;;;;;;21.77;12.10;;;;;;;2.18;100.00;99593.16;10397882;28;20050;-77
2022/01/22 05:48:47;;;;;;;18.65;11.43;;;;;;;2.20;100.00;99602.50;10362533;28;20469;-79
2022/01/22 05:54:14;;;;;;;15.07;9.32;;;;;;;2.15;100.00;99604.25;10345212;28;20052;-76
2022/01/22 06:04:28;;;;;;;18.70;11.13;;;;;;;2.13;100.00;99619.56;10322071;28;20080;-76
2022/01/22 06:09:39;;;;;;;17.73;11.13;;;;;;;2.04;100.00;99621.78;10345464;28;20078;-77
2022/01/22 06:14:40;;;;;;;20.48;10.98;;;;;;;2.11;100.00;99617.16;10320495;28;20569;-78
2022/01/22 06:19:42;;;;;;;14.88;9.55;;;;;;;1.97;100.00;99619.25;10359981;28;20160;-79
2022/01/22 06:24:44;;;;;;;19.85;10.45;;;;;;;1.99;100.00;99614.53;10346114;28;20077;-78
2022/01/22 06:29:46;;;;;;;18.10;10.20;;;;;;;2.00;100.00;99624.06;10309088;28;20054;-80
2022/01/22 06:34:48;;;;;;;16.90;10.15;;;;;;;1.99;100.00;99645.50;10383783;28;20073;-81
2022/01/22 06:45:29;;;;;;;18.35;10.82;;;;;;;2.01;100.00;99640.75;10361837;28;20045;-76
2022/01/22 06:50:33;;;;;;;16.98;9.10;;;;;;;2.06;100.00;99648.00;10341566;28;20062;-78
2022/01/22 06:55:40;;;;;;;20.67;11.68;;;;;;;1.97;100.00;99648.38;10331005;28;20046;-78
2022/01/22 07:00:41;;;;;;;16.95;10.23;;;;;;;2.04;100.00;99663.34;10337397;28;20173;-79
2022/01/22 07:05:57;;;;;;;18.25;10.27;;;;;;;1.95;100.00;99676.94;10337184;28;20058;-79
2022/01/22 07:11:01;;;;;;;14.15;8.82;;;;;;;2.12;100.00;99669.09;10339216;28;20069;-78
2022/01/22 07:16:06;;;;;;;15.35;9.50;;;;;;;2.10;100.00;99668.47;10349987;28;20057;-79
2022/01/22 07:21:20;;;;;;;18.98;9.40;;;;;;;2.08;100.00;99672.41;10380032;28;20054;-78
2022/01/22 07:26:26;;;;;;;15.05;9.35;;;;;;;2.06;100.00;99675.28;10355488;28;20481;-79
2022/01/22 07:31:39;;;;;;;13.70;9.20;;;;;;;2.12;100.00;99681.53;10343986;28;20057;-78
2022/01/22 07:36:46;;;;;;;16.48;9.80;;;;;;;2.12;100.00;99689.47;10344655;28;20042;-76
2022/01/22 07:41:51;;;;;;;14.52;9.50;;;;;;;2.05;100.00;99697.53;10384602;28;20049;-79
2022/01/22 07:47:21;;;;;;;17.67;9.48;;;;;;;2.18;100.00;99704.41;10383647;28;20078;-79
2022/01/22 07:52:25;;;;;;;16.13;10.02;;;;;;;2.12;100.00;99698.22;10397518;28;20076;-79
2022/01/22 07:57:28;;;;;;;20.02;11.60;;;;;;;2.26;100.00;99702.19;10374296;28;20064;-78
2022/01/22 08:02:39;;;;;;;18.20;11.48;;;;;;;2.18;100.00;99702.56;10361835;28;20105;-79
2022/01/22 08:08:14;;;;;;;15.82;10.45;;;;;;;2.20;100.00;99703.16;10338438;28;20077;-78
2022/01/22 08:13:34;;;;;;;18.08;11.13;;;;;;;2.22;100.00;99708.22;10353939;28;20069;-78
2022/01/22 08:18:36;;;;;;;19.58;10.40;;;;;;;2.25;100.00;99716.50;10389027;28;20050;-77
2022/01/22 08:23:44;;;;;;;19.60;10.77;;;;;;;2.18;100.00;99720.28;10384524;28;20042;-78
2022/01/22 08:29:13;;;;;;;21.45;11.68;;;;;;;2.23;100.00;99726.53;10399807;28;20120;-79
2022/01/22 08:39:39;;;;;;;16.33;10.48;;;;;;;2.30;100.00;99734.34;10352907;28;20053;-77
2022/01/22 08:44:41;;;;;;;15.48;9.23;;;;;;;2.36;100.00;99748.50;10364933;28;20078;-78
2022/01/22 08:49:55;;;;;;;15.18;9.77;;;;;;;2.35;100.00;99750.34;10361446;28;20573;-78
2022/01/22 08:54:56;;;;;;;18.30;10.85;;;;;;;2.46;100.00;99746.06;10355784;28;20034;-78
2022/01/22 08:59:57;;;;;;;17.13;10.43;;;;;;;2.54;100.00;99765.03;10382307;28;20084;-80
2022/01/22 09:04:59;;;;;;;21.33;10.75;;;;;;;2.62;100.00;99765.72;10371026;28;20034;-79
2022/01/22 09:10:23;;;;;;;12.88;9.27;;;;;;;2.53;100.00;99758.13;10386190;28;20052;-77
2022/01/22 09:15:47;;;;;;;13.25;8.82;;;;;;;2.73;100.00;99770.19;10353095;28;20681;-81
2022/01/22 09:25:57;;;;;;;17.50;8.90;;;;;;;2.67;100.00;99774.59;10361290;28;20046;-79
2022/01/22 09:31:06;;;;;;;;;;;;;;;2.72;100.00;99782.63;10386404;28;20053;-81
2022/01/22 09:36:08;;;;;;;11.52;8.75;;;;;;;2.65;100.00;99783.81;10342910;28;20016;-78
2022/01/22 09:41:37;;;;;;;15.35;9.30;;;;;;;2.73;100.00;99781.59;10355777;28;20093;-77
2022/01/22 09:46:40;;;;;;;16.98;9.68;;;;;;;2.70;100.00;99791.88;10349619;28;20046;-77
2022/01/22 09:51:53;;;;;;;18.92;10.82;;;;;;;2.79;100.00;99804.53;10318186;28;20101;-79
2022/01/22 09:57:17;;;;;;;23.20;14.48;;;;;;;2.89;100.00;99814.53;10366528;28;20064;-79
2022/01/22 10:02:45;;;;;;;15.75;10.25;;;;;;;2.82;100.00;99813.84;10362926;28;20049;-77
2022/01/22 10:08:18;;;;;;;18.75;10.07;;;;;;;2.91;100.00;99814.28;10375751;28;20366;-79
2022/01/22 10:13:44;;;;;;;17.95;11.30;;;;;;;2.84;100.00;99815.25;10391473;28;20049;-76
2022/01/22 10:19:15;;;;;;;18.40;11.38;;;;;;;2.91;100.00;99819.59;10364104;28;20076;-77
2022/01/22 10:24:40;;;;;;;17.85;11.20;;;;;;;2.95;100.00;99826.06;10361927;28;20480;-77
2022/01/22 10:29:48;;;;;;;19.98;11.00;;;;;;;2.85;100.00;99822.16;10361447;28;20054;-77
2022/01/22 10:35:05;;;;;;;19.35;10.60;;;;;;;3.04;100.00;99814.84;10331999;28;20061;-77
2022/01/22 10:40:34;;;;;;;14.73;9.65;;;;;;;3.04;100.00;99806.88;10362182;28;20046;-78
2022/01/22 10:45:39;;;;;;;16.45;10.05;;;;;;;3.02;100.00;99808.19;10362478;28;20753;-79
2022/01/22 10:50:40;;;;;;;17.80;10.82;;;;;;;3.01;100.00;99815.28;10336100;28;20297;-77
2022/01/22 10:56:02;;;;;;;16.33;10.80;;;;;;;2.99;100.00;99804.13;10362509;28;20069;-77
2022/01/22 11:01:07;;;;;;;17.55;10.82;;;;;;;3.01;100.00;99798.59;10371689;28;20774;-77
2022/01/22 11:06:25;;;;;;;19.00;10.55;;;;;;;3.06;100.00;99790.75;10306695;28;20137;-78
2022/01/22 11:11:26;;;;;;;16.63;10.23;;;;;;;3.02;100.00;99793.06;10372033;28;20049;-78
2022/01/22 11:16:29;;;;;;;15.77;10.20;;;;;;;3.14;100.00;99791.16;10361434;28;20520;-78
2022/01/22 11:21:33;;;;;;;15.35;10.13;;;;;;;3.07;100.00;99805.59;10375387;28;20057;-76
2022/01/22 11:26:37;;;;;;;16.38;10.68;;;;;;;3.09;100.00;99801.66;10349659;28;20166;-77
2022/01/22 11:31:41;;;;;;;15.40;9.57;;;;;;;3.19;100.00;99806.34;10334506;28;20104;-76
2022/01/22 11:37:19;;;;;;;17.05;10.55;;;;;;;3.21;100.00;99798.19;10352793;28;20042;-76
2022/01/22 11:42:21;;;;;;;15.25;9.90;;;;;;;3.14;100.00;99804.44;10362169;28;20092;-75
2022/01/22 11:47:22;;;;;;;15.27;10.18;;;;;;;3.20;100.00;99813.31;10361214;28;20062;-76
2022/01/22 11:52:26;;;;;;;14.57;9.35;;;;;;;3.10;100.00;99813.09;10378027;28;20057;-78
2022/01/22 11:57:31;;;;;;;20.20;10.27;;;;;;;3.18;100.00;99820.66;10353885;28;20502;-79
2022/01/22 12:02:37;;;;;;;16.83;9.75;;;;;;;3.25;100.00;99817.88;10351419;28;20123;-80
2022/01/22 12:07:40;;;;;;;16.42;10.27;;;;;;;3.21;100.00;99822.88;10372863;28;20153;-77
2022/01/22 12:18:13;;;;;;;16.52;9.75;;;;;;;3.21;100.00;99819.41;10401880;28;20038;-78
2022/01/22 12:23:29;;;;;;;15.18;9.40;;;;;;;3.33;100.00;99822.81;10402552;28;20033;-78
2022/01/22 12:28:44;;;;;;;15.32;9.75;;;;;;;3.25;100.00;99823.19;10361221;28;20085;-77
2022/01/22 12:33:48;;;;;;;16.20;11.00;;;;;;;3.25;100.00;99821.34;10371154;28;20503;-77
2022/01/22 12:39:04;;;;;;;19.17;10.90;;;;;;;3.27;100.00;99819.25;10385315;28;20915;-77
2022/01/22 12:49:25;;;;;;;18.80;11.57;;;;;;;3.28;100.00;99833.31;10343347;28;20132;-78
2022/01/22 12:54:39;;;;;;;20.27;12.02;;;;;;;3.27;100.00;99821.91;10337571;28;20065;-77
2022/01/22 12:59:52;;;;;;;19.05;11.50;;;;;;;3.26;100.00;99825.59;10394292;28;20058;-78
2022/01/22 13:05:05;;;;;;;20.65;11.70;;;;;;;3.34;100.00;99816.47;10350004;28;20177;-78
2022/01/22 13:10:32;;;;;;;19.65;11.70;;;;;;;3.35;100.00;99815.41;10386110;28;20061;-78
2022/01/22 13:15:36;;;;;;;20.00;12.77;;;;;;;3.32;100.00;99810.59;10373349;28;20053;-78
2022/01/22 13:20:39;;;;;;;21.02;12.13;;;;;;;3.36;100.00;99811.72;10387521;28;20054;-78
2022/01/22 13:25:41;;;;;;;22.77;11.85;;;;;;;3.37;100.00;99818.63;10381906;28;20054;-78
2022/01/22 13:30:51;;;;;;;22.75;12.20;;;;;;;3.34;100.00;99814.63;10362280;28;20054;-78
2022/01/22 13:36:14;;;;;;;20.73;12.38;;;;;;;3.27;100.00;99823.75;10340975;28;20053;-80
2022/01/22 13:52:07;;;;;;;21.17;13.17;;;;;;;3.34;100.00;99843.81;10357184;28;20119;-78
2022/01/22 13:57:23;;;;;;;20.70;12.65;;;;;;;3.36;100.00;99844.38;10357798;28;20285;-79
2022/01/22 14:03:02;;;;;;;22.98;13.20;;;;;;;3.31;100.00;99840.81;10341904;28;20513;-80
2022/01/22 14:08:08;;;;;;;22.30;13.70;;;;;;;3.28;100.00;99847.38;10351212;28;20057;-79
2022/01/22 14:13:13;;;;;;;20.23;12.57;;;;;;;3.31;100.00;99840.81;10356770;28;20069;-78
2022/01/22 14:18:27;;;;;;;20.00;12.35;;;;;;;3.42;100.00;99837.31;10356327;28;20076;-78
2022/01/22 14:23:36;;;;;;;17.88;11.52;;;;;;;3.37;100.00;99838.00;10352405;28;20050;-79
2022/01/22 14:28:47;;;;;;;20.63;11.90;;;;;;;3.35;100.00;99837.44;10334158;28;20054;-79
2022/01/22 14:34:06;;;;;;;20.38;12.68;;;;;;;3.35;100.00;99849.91;10341735;28;20121;-78
2022/01/22 14:43:47;;;;;;;18.67;11.23;;;;;;;3.39;100.00;99843.09;10360826;28;20085;-78
2022/01/22 14:45:05;;;;;;;20.13;12.63;;;;;;;3.39;100.00;99843.09;10352280;28;20050;-78
2022/01/22 14:50:57;;;;;;;17.05;10.40;;;;;;;3.45;100.00;99839.47;10363807;28;20062;-79
2022/01/22 14:56:02;;;;;;;18.02;10.82;;;;;;;3.38;100.00;99839.66;10357903;28;20057;-80
2022/01/22 15:01:07;;;;;;;18.02;11.20;;;;;;;3.59;100.00;99846.13;10350495;28;20054;-76
2022/01/22 15:06:12;;;;;;;18.20;10.82;;;;;;;3.58;100.00;99849.81;10364454;28;20113;-79
2022/01/22 15:11:13;;;;;;;16.52;10.63;;;;;;;3.47;100.00;99845.34;10368005;28;20386;-79
2022/01/22 15:16:18;;;;;;;19.77;10.65;;;;;;;3.49;100.00;99856.56;10326384;28;20054;-79
2022/01/22 15:21:29;;;;;;;17.23;10.40;;;;;;;3.47;100.00;99865.78;10356564;28;20136;-78
2022/01/22 15:26:35;;;;;;;18.80;10.52;;;;;;;3.53;100.00;99870.16;10372357;28;20065;-79
2022/01/22 15:31:50;;;;;;;19.73;11.48;;;;;;;3.53;100.00;99880.78;10361943;28;20129;-79
2022/01/22 15:36:51;;;;;;;19.23;11.82;;;;;;;3.43;100.00;99887.50;10404927;28;20042;-79
2022/01/22 15:41:59;;;;;;;18.90;12.27;;;;;;;3.50;100.00;99883.91;10412249;28;20057;-80
2022/01/22 15:46:59;;;;;;;18.08;11.48;;;;;;;3.61;100.00;99894.47;10371082;28;20308;-78
2022/01/22 15:52:02;;;;;;;19.85;11.55;;;;;;;3.55;100.00;99903.38;10359650;28;20541;-78
2022/01/22 15:57:17;;;;;;;19.50;11.10;;;;;;;3.47;100.00;99916.22;10373339;28;20054;-77
2022/01/22 16:02:18;;;;;;;17.95;11.05;;;;;;;3.48;100.00;99915.19;10346455;28;20054;-78
2022/01/22 16:12:23;;;;;;;22.83;11.82;;;;;;;3.51;100.00;99922.69;10359103;28;20066;-78
2022/01/22 16:17:32;;;;;;;19.67;12.55;;;;;;;3.42;100.00;99922.25;10350377;28;20602;-78
2022/01/22 16:22:33;;;;;;;21.48;12.63;;;;;;;3.39;100.00;99928.03;10336728;28;20139;-78
2022/01/22 16:27:37;;;;;;;26.60;14.30;;;;;;;3.43;100.00;99939.78;10337980;28;20050;-79
2022/01/22 16:32:37;;;;;;;;;;;;;;;3.42;100.00;99941.63;10324421;28;20101;-78
2022/01/22 16:37:41;;;;;;;20.02;12.00;;;;;;;3.45;100.00;99942.19;10353742;28;20015;-78
2022/01/22 16:42:49;;;;;;;22.95;13.30;;;;;;;3.37;100.00;99943.34;10357222;28;20082;-79
2022/01/22 16:58:36;;;;;;;20.48;11.93;;;;;;;3.43;100.00;99951.19;10363184;28;20177;-77
2022/01/22 17:03:39;;;;;;;20.92;12.20;;;;;;;3.47;100.00;99953.38;10364068;28;20057;-78
2022/01/22 17:08:40;;;;;;;20.43;13.30;;;;;;;3.41;100.00;99957.78;10368838;28;20050;-78
2022/01/22 17:19:03;;;;;;;24.83;13.77;;;;;;;3.45;100.00;99966.88;10370307;28;20062;-79
2022/01/22 17:24:05;;;;;;;26.83;14.45;;;;;;;3.45;100.00;99969.53;10381294;28;20058;-78
2022/01/22 17:29:06;;;;;;;24.73;13.57;;;;;;;3.38;100.00;99979.47;10372296;28;20050;-78
2022/01/22 17:34:06;;;;;;;23.88;14.18;;;;;;;3.50;100.00;99977.63;10320830;28;20058;-82
2022/01/22 17:39:15;;;;;;;20.48;12.93;;;;;;;3.42;100.00;99986.75;10350478;28;20144;-78
2022/01/22 17:44:21;;;;;;;22.40;12.80;;;;;;;3.49;100.00;99986.63;10335282;28;20077;-77
2022/01/22 17:49:21;;;;;;;22.13;13.35;;;;;;;3.40;100.00;99988.84;10349851;28;20051;-82
2022/01/22 17:54:25;;;;;;;22.20;13.15;;;;;;;3.35;100.00;99987.91;10336471;28;21061;-78
2022/01/22 17:59:27;;;;;;;20.48;12.43;;;;;;;3.44;100.00;99989.16;10318336;28;20125;-77
2022/01/22 18:04:40;;;;;;;20.48;12.35;;;;;;;3.40;100.00;99991.50;10330315;28;20068;-78
2022/01/22 18:09:41;;;;;;;22.55;12.55;;;;;;;3.44;100.00;99991.81;10374703;28;20057;-78
2022/01/22 18:14:42;;;;;;;22.33;12.15;;;;;;;3.53;100.00;99982.44;10333527;28;20057;-78
2022/01/22 18:19:43;;;;;;;20.05;12.05;;;;;;;3.43;100.00;99985.69;10348223;28;20153;-78
2022/01/22 18:24:47;;;;;;;19.02;11.05;;;;;;;3.41;100.00;99977.16;10339618;28;20500;-78
2022/01/22 18:29:47;;;;;;;18.42;10.57;;;;;;;3.49;100.00;99976.00;10354296;28;20133;-79
2022/01/22 18:34:50;;;;;;;18.13;11.23;;;;;;;3.40;100.00;99986.19;10372578;28;20046;-80
2022/01/22 18:39:56;;;;;;;20.15;11.02;;;;;;;3.40;100.00;99978.22;10351512;28;20054;-77
2022/01/22 18:45:01;;;;;;;21.02;11.77;;;;;;;3.48;100.00;99981.56;10352344;28;20066;-79
2022/01/22 18:50:04;;;;;;;21.48;11.93;;;;;;;3.42;100.00;99980.63;10360247;28;20078;-78
2022/01/22 18:55:05;;;;;;;;;;;;;;;3.36;100.00;99984.22;10363214;28;20030;-79
2022/01/22 19:00:09;;;;;;;19.63;11.07;;;;;;;3.39;100.00;99986.41;10396387;28;19909;-79
2022/01/22 19:05:10;;;;;;;19.90;11.40;;;;;;;3.37;100.00;99991.94;10413383;28;20078;-78
2022/01/22 19:10:14;;;;;;;17.45;10.45;;;;;;;3.36;100.00;99989.50;10348350;28;20113;-79
2022/01/22 19:15:17;;;;;;;18.52;10.82;;;;;;;3.42;100.00;100001.88;10370161;28;20106;-78
2022/01/22 19:20:20;;;;;;;22.70;11.52;;;;;;;3.36;100.00;100000.13;10354408;28;20046;-78
2022/01/22 19:30:31;;;;;;;19.58;10.75;;;;;;;3.42;100.00;100013.28;10359410;28;20406;-78
2022/01/22 19:35:34;;;;;;;18.45;10.98;;;;;;;3.37;100.00;100009.69;10362362;28;20074;-79
2022/01/22 19:40:41;;;;;;;19.30;10.85;;;;;;;3.46;100.00;100008.31;10372236;28;20205;-78
2022/01/22 19:45:43;;;;;;;19.35;10.75;;;;;;;3.37;100.00;100009.69;10378424;28;20058;-78
2022/01/22 19:50:46;;;;;;;19.85;10.73;;;;;;;3.34;100.00;100013.63;10346602;28;20061;-77
2022/01/22 19:55:53;;;;;;;20.63;11.15;;;;;;;3.39;100.00;100016.41;10308554;28;20369;-78
2022/01/22 20:00:54;;;;;;;20.92;11.20;;;;;;;3.33;100.00;100019.19;10357695;28;20046;-77
2022/01/22 20:05:56;;;;;;;19.92;11.95;;;;;;;3.44;100.00;100018.34;10349212;28;20093;-77
2022/01/22 20:10:59;;;;;;;20.08;11.02;;;;;;;3.35;100.00;100025.88;10368579;28;20053;-78
2022/01/22 20:16:00;;;;;;;26.95;13.27;;;;;;;3.40;100.00;100020.69;10353884;28;20058;-79
2022/01/22 20:21:04;;;;;;;20.58;11.63;;;;;;;3.33;100.00;100027.16;10362053;28;20161;-78
2022/01/22 20:26:07;;;;;;;22.30;12.35;;;;;;;3.29;100.00;100021.50;10255324;28;3227779;-78
2022/01/22 20:31:23;;;;;;;23.02;12.32;;;;;;;3.42;100.00;100028.41;10375672;28;20064;-77
2022/01/22 20:36:23;;;;;;;21.60;12.13;;;;;;;3.41;100.00;100030.25;10373623;28;20417;-78
2022/01/22 20:41:28;;;;;;;21.67;12.85;;;;;;;3.44;100.00;100026.31;10367507;28;20050;-79
2022/01/22 20:46:38;;;;;;;19.58;11.80;;;;;;;3.40;100.00;100023.34;10342984;28;20085;-80
2022/01/22 20:51:44;;;;;;;20.88;11.75;;;;;;;3.50;100.00;100035.22;10360933;28;20052;-78
2022/01/22 20:56:46;;;;;;;20.55;12.27;;;;;;;3.41;100.00;100034.75;10317573;28;20531;-79
2022/01/22 21:01:47;;;;;;;21.33;12.40;;;;;;;3.39;100.00;100031.53;10345022;28;20103;-80
2022/01/22 21:06:51;;;;;;;22.20;12.80;;;;;;;3.38;100.00;100030.72;10335460;28;20382;-77
2022/01/22 21:11:57;;;;;;;23.27;13.68;;;;;;;3.42;100.00;100042.47;10337056;28;20050;-80
2022/01/22 21:16:58;;;;;;;24.45;12.98;;;;;;;3.42;100.00;100031.88;10360630;28;20052;-80
2022/01/22 21:22:00;;;;;;;27.75;15.40;;;;;;;3.47;100.00;100039.13;10372551;28;20072;-78
2022/01/22 21:27:05;;;;;;;28.20;15.00;;;;;;;3.40;100.00;100052.53;10343864;28;20058;-81
2022/01/22 21:32:12;;;;;;;25.48;13.70;;;;;;;3.36;100.00;100048.72;10334556;28;20053;-78
2022/01/22 21:42:21;;;;;;;24.65;13.90;;;;;;;3.29;100.00;100050.69;10360024;28;20073;-78
2022/01/22 21:47:22;;;;;;;26.67;13.98;;;;;;;3.30;100.00;100060.28;10360056;28;20060;-79
2022/01/22 21:52:25;;;;;;;23.55;13.40;;;;;;;3.35;100.00;100056.91;10372662;28;20051;-78
2022/01/22 21:57:26;;;;;;;24.15;13.52;;;;;;;3.38;100.00;100040.50;10384689;28;20102;-79
2022/01/22 22:02:29;;;;;;;22.80;13.13;;;;;;;3.30;100.00;100040.88;10360863;28;20065;-78
2022/01/22 22:07:29;;;;;;;26.85;14.73;;;;;;;3.31;100.00;100037.19;10336642;28;20068;-79
2022/01/22 22:12:30;;;;;;;24.85;13.68;;;;;;;3.36;100.00;100034.63;10332540;28;20060;-80
2022/01/22 22:17:30;;;;;;;24.05;13.40;;;;;;;3.31;100.00;100026.56;10347169;28;20057;-80
2022/01/22 22:22:35;;;;;;;22.20;13.15;;;;;;;3.33;100.00;100024.50;10333197;28;20061;-78
2022/01/22 22:27:41;;;;;;;26.87;13.83;;;;;;;3.20;100.00;100036.16;10335369;28;20054;-79
2022/01/22 22:32:49;;;;;;;24.25;14.25;;;;;;;3.26;100.00;100031.75;10351558;28;20080;-78
2022/01/22 22:37:51;;;;;;;28.05;14.20;;;;;;;3.25;100.00;100023.00;10351416;28;20133;-76
2022/01/22 22:42:53;;;;;;;25.88;14.93;;;;;;;3.24;100.00;100037.31;10351605;28;20046;-77
2022/01/22 22:47:55;;;;;;;24.80;14.50;;;;;;;3.26;100.00;100034.41;10360182;28;20170;-80
2022/01/22 22:52:56;;;;;;;28.42;15.35;;;;;;;3.28;100.00;100024.38;10366656;28;20425;-80
2022/01/22 22:57:58;;;;;;;27.65;15.57;;;;;;;3.23;100.00;100030.38;10371339;28;20049;-78
2022/01/22 23:03:01;;;;;;;26.38;15.45;;;;;;;3.14;100.00;100029.13;10361654;28;20060;-77
2022/01/22 23:08:04;;;;;;;27.25;15.00;;;;;;;3.23;100.00;100033.03;10357185;28;20053;-81
2022/01/22 23:13:06;;;;;;;28.58;16.20;;;;;;;3.17;100.00;100035.81;10375036;28;20067;-78
2022/01/22 23:33:44;;;;;;;29.50;15.77;;;;;;;3.10;100.00;100057.94;10418559;28;20054;-79
2022/01/22 23:54:59;;;;;;;26.67;14.82;;;;;;;3.25;100.00;100062.78;10333593;28;20033;-77
